x

Gooses Reef, Md (44062) Weather Station

10:50am - Sun 25th Jan 2015 All times are EST. -5 hours from GMT.

  • Wind
    11mph, 13mph gusts
  • Air Temp 40°f
  • Sea Pressure 1010.8mb
  • Gooses Reef, Md
  • Gooses Reef, Md

More Historic Weather Station data

Upgrade to MSW Pro to gain access to the past 30 days of data for over 8000 Wavebouys and Weather Stations around the globe.

Join Pro

Comparision Forecast

View Surf forecast
   
Sun 01/25 10:50am  -   -  11 13 mph 1010.8mb - 40f
10:40am  -   -  11 13 mph 1010.7mb - 40f
10:30am  -   -  7 9 mph 1010.4mb - 40f
10:20am  -   -  9
mph
1010.3mb - 39f
10:10am  -   -  9 11 mph 1010.3mb - 39f
10:00am 0.3ft  -  9 11 mph 1010mb 37f 39f
9:50am  -   -  9
mph
1009.8mb - 39f
9:40am  -   -  9 11 mph 1009.9mb - 39f
9:30am  -   -  7
mph
1009.9mb - 38f
9:20am  -   -  7 9 mph 1010mb - 38f
9:10am  -   -  7 9 mph 1009.9mb - 38f
9:00am 0.3ft  -  9
mph
1009.9mb 36f 37f
8:50am  -   -  9
mph
1009.7mb - 37f
8:40am  -   -  7
mph
1009.7mb - 38f
8:30am  -   -  7
mph
1009.7mb - 37f
8:20am  -   -  7
mph
1009.6mb - 37f
8:10am  -   -  7 9 mph 1009.5mb - 37f
8:00am 0.7ft  -  7 9 mph 1009.5mb 36f 37f
7:50am  -   -  7 9 mph 1009.5mb - 37f
7:40am  -   -  9 11 mph 1009.7mb - 37f
7:30am  -   -  9 11 mph 1009.8mb - 37f
7:20am  -   -  9 11 mph 1009.7mb - 37f
7:10am  -   -  9 11 mph 1009.6mb - 37f
7:00am 0.7ft  -  11
mph
1009.4mb 36f 37f
6:50am  -   -  11 13 mph 1009.1mb - 37f
6:40am  -   -  9 13 mph 1009.1mb - 36f
6:30am  -   -  9 11 mph 1008.9mb - 36f
6:20am  -   -  9 11 mph 1008.8mb - 36f
6:10am  -   -  9 11 mph 1008.6mb - 37f
6:00am 0.3ft  -  9 11 mph 1008.3mb 36f 37f
5:50am  -   -  7 9 mph 1008.3mb - 37f
5:40am  -   -  7 9 mph 1008.2mb - 37f
5:30am  -   -  9 11 mph 1008.2mb - 37f
5:20am  -   -  9 11 mph 1008.1mb - 37f
5:10am  -   -  9 11 mph 1007.9mb - 37f
5:00am 0.7ft  -  11 13 mph 1007.8mb 37f 37f
4:50am  -   -  9 11 mph 1007.6mb - 37f
4:40am  -   -  11
mph
1007.3mb - 37f
4:30am  -   -  9 11 mph 1007.2mb - 37f
4:20am  -   -  9 11 mph 1007mb - 37f
4:10am  -   -  9 11 mph 1006.8mb - 37f
4:00am 1ft 2s 9 11 mph 1006.7mb 37f 37f
3:50am  -   -  11 13 mph 1006.7mb - 37f
3:40am  -   -  11 13 mph 1006.7mb - 37f
3:30am  -   -  9 11 mph 1006.7mb - 37f
3:20am  -   -  9 11 mph 1006.5mb - 37f
3:10am  -   -  9 11 mph 1006.3mb - 38f
3:00am 1.3ft 2s 11 13 mph 1006.3mb 37f 38f
2:50am  -   -  13 18 mph 1006.2mb - 38f
2:40am  -   -  16 18 mph 1006mb - 38f
2:30am  -   -  16 20 mph 1005.9mb - 38f
2:20am  -   -  20 22 mph 1005.5mb - 38f
2:10am  -   -  20 25 mph 1005.1mb - 38f
2:00am 1.6ft 2s 18 22 mph 1005mb 37f 38f
1:50am  -   -  16 20 mph 1005.1mb - 38f
1:40am  -   -  13 16 mph 1004.9mb - 37f
1:30am  -   -  16 18 mph 1004.7mb - 38f
1:20am  -   -  16 20 mph 1004.7mb - 38f
1:10am  -   -  16 20 mph 1004.7mb - 38f
1:00am 1.3ft 2s 13 18 mph 1004.6mb 37f 38f
12:50am  -   -  11 16 mph 1004.5mb - 38f
12:40am  -   -  13 16 mph 1004.4mb - 38f
12:30am  -   -  13 18 mph 1004.3mb - 38f
12:20am  -   -  16 18 mph 1004.3mb - 38f
12:10am  -   -  16 20 mph 1004.1mb - 38f
12:00am 1.3ft 2s 16 20 mph 1003.9mb 37f 38f
Sat 01/24 11:50pm  -   -  16 20 mph 1003.9mb - 38f
11:40pm  -   -  16 20 mph 1003.7mb - 38f
11:30pm  -   -  16 20 mph 1003.5mb - 38f
11:20pm  -   -  16 22 mph 1003.3mb - 38f
11:10pm  -   -  16 20 mph 1003.3mb - 38f
11:00pm 1.3ft 2s 13 18 mph 1003.3mb 37f 38f
10:50pm  -   -  13 18 mph 1003.3mb - 38f
10:40pm  -   -  13 18 mph 1003.1mb - 38f
10:30pm  -   -  11 13 mph 1003.1mb - 38f
10:20pm  -   -  11 16 mph 1002.8mb - 38f
10:10pm  -   -  11 16 mph 1002.6mb - 38f
10:00pm 1.3ft 2s 13 18 mph 1002.5mb 37f 38f
9:50pm  -   -  11 16 mph 1002.4mb - 38f
9:40pm  -   -  11 13 mph 1002.3mb - 38f
9:30pm  -   -  13 16 mph 1002.1mb - 39f
9:20pm  -   -  13 16 mph 1001.9mb - 39f
9:10pm  -   -  13 16 mph 1001.7mb - 39f
9:00pm 1ft 2s 13 16 mph 1001.4mb 37f 39f
8:50pm  -   -  11 16 mph 1001.3mb - 39f
8:40pm  -   -  11 16 mph 1001.1mb - 39f
8:30pm  -   -  13 16 mph 1001.2mb - 40f
8:20pm  -   -  16 22 mph 1001.1mb - 40f
8:10pm  -   -  16 18 mph 1001mb - 40f
8:00pm 1.6ft 2s 16 20 mph 1000.8mb 37f 40f
7:50pm  -   -  18 22 mph 1000.6mb - 40f
7:40pm  -   -  20 27 mph 1000.3mb - 40f
7:30pm  -   -  18 27 mph 1000.1mb - 40f
7:20pm  -   -  16 18 mph 1000mb - 40f
7:10pm  -   -  16 20 mph 999.9mb - 40f
7:00pm 1ft 2s 16 18 mph 999.9mb 37f 40f
6:50pm  -   -  13 16 mph 999.8mb - 40f
6:40pm  -   -  11 16 mph 999.7mb - 39f
6:30pm  -   -  11 16 mph 999.6mb - 39f
6:20pm  -   -  11 13 mph 999.4mb - 40f
6:10pm  -   -  11 16 mph 999.3mb - 40f
6:00pm 1ft 2s 11 18 mph 999.1mb 37f 40f
5:50pm  -   -  11 16 mph 999mb - 40f
5:40pm  -   -  13 18 mph 998.9mb - 40f
5:30pm  -   -  16 20 mph 998.6mb - 40f
5:20pm  -   -  16 18 mph 998.5mb - 40f
5:10pm  -   -  16 20 mph 998.3mb - 40f
5:00pm 1ft 2s 13 16 mph 998.1mb 37f 40f
4:50pm  -   -  11 16 mph 998.1mb - 40f
4:40pm  -   -  11 16 mph 998mb - 40f
4:30pm  -   -  11 18 mph 997.7mb - 39f
4:20pm  -   -  13 18 mph 997.6mb - 40f
4:10pm  -   -  13 16 mph 997.7mb - 39f
4:00pm 1.3ft 2s 11 16 mph 997.6mb 37f 39f
3:50pm  -   -  11 16 mph 997.5mb - 39f
3:40pm  -   -  13 16 mph 997.4mb - 38f
3:30pm  -   -  13 16 mph 997.2mb - 39f
3:20pm  -   -  13 18 mph 997.1mb - 38f
3:10pm  -   -  13 16 mph 997mb - 38f
3:00pm 2ft 2s 16 18 mph 996.8mb 37f 38f
2:50pm  -   -  16 20 mph 996.5mb - 38f
2:40pm  -   -  18 20 mph 996.2mb - 38f
2:30pm  -   -  18 22 mph 995.8mb - 38f
2:20pm  -   -  18 22 mph 995.5mb - 38f
2:10pm  -   -  20 25 mph 995.3mb - 38f
2:00pm 1.6ft 2s 20 25 mph 995.2mb 37f 38f
1:50pm  -   -  20 25 mph 995.1mb - 38f
1:40pm  -   -  22 25 mph 994.9mb - 38f
1:30pm  -   -  20 25 mph 994.7mb - 38f
1:20pm  -   -  18 20 mph 994.8mb - 38f
1:10pm  -   -  16 20 mph 995mb - 37f
1:00pm 1.3ft 2s 13 16 mph 995.3mb 37f 37f
12:50pm  -   -  13 18 mph 995.8mb - 37f
12:40pm  -   -  16 18 mph 996mb - 37f
12:30pm  -   -  13 18 mph 996.2mb - 37f
12:20pm  -   -  16 18 mph 996.3mb - 37f
12:10pm  -   -  18 20 mph 995.8mb - 37f
12:00pm 2ft 2s 18 22 mph 995.4mb 37f 37f
11:50am  -   -  18 22 mph 995.3mb - 37f
11:40am  -   -  16 18 mph 996.1mb - 37f
11:30am  -   -  16 18 mph 996.7mb - 36f
11:20am  -   -  13 16 mph 997.5mb - 36f
11:10am  -   -  13 16 mph 997.9mb - 36f
11:00am 1.6ft 2s 13 18 mph 998.1mb 37f 36f
10:50am  -   -  13 16 mph 998.8mb - 36f
10:40am  -   -  13
mph
999.2mb - 36f
10:30am  -   -  11 13 mph 999.4mb - 36f
10:20am  -   -  13 16 mph 999.5mb - 36f
10:10am  -   -  16 18 mph 999.7mb - 36f
10:00am 2.5ft 3s 18 22 mph 998.8mb 37f 36f
9:50am  -   -  18 22 mph 998.1mb - 35f
9:40am  -   -  18 22 mph 998.2mb - 35f
9:30am  -   -  16 18 mph 998.6mb - 35f
9:20am  -   -  16 18 mph 998.9mb - 35f
9:10am  -   -  18 22 mph 998.2mb - 35f
9:00am 2.5ft 3s 20 25 mph 998mb 37f 35f
8:50am  -   -  18 22 mph 998.7mb - 35f
8:40am  -   -  18 22 mph 998.9mb - 35f
8:30am  -   -  20 25 mph 998.5mb - 35f
8:20am  -   -  20 25 mph 998.7mb - 35f
8:10am  -   -  20 25 mph 999mb - 35f
8:00am 2.5ft 3s 20 25 mph 999mb 37f 36f
7:50am  -   -  20 25 mph 999.5mb - 36f
7:40am  -   -  20 22 mph 999.2mb - 36f
7:30am  -   -  20 25 mph 999mb - 36f
7:20am  -   -  18 20 mph 999.3mb - 35f
7:10am  -   -  16 20 mph 999.3mb - 35f
7:00am 2ft 3s 18 20 mph 999mb 37f 35f
6:50am  -   -  16 20 mph 999.4mb - 35f
6:40am  -   -  18 22 mph 999.2mb - 35f
6:30am  -   -  16 20 mph 999mb - 35f
6:20am  -   -  18 22 mph 999.3mb - 35f
6:10am  -   -  13 18 mph 1000.4mb - 35f
6:00am 1.6ft 3s 13 18 mph 1000.6mb 37f 36f
5:50am  -   -  18 25 mph 1000.1mb - 35f
5:40am  -   -  18 22 mph 1000.2mb - 35f
5:30am  -   -  16 20 mph 1001mb - 35f
5:20am  -   -  16 20 mph 1001.1mb - 35f
5:10am  -   -  18 22 mph 1001.2mb - 35f
5:00am 2ft 3s 18 22 mph 1001.6mb 37f 35f
4:50am  -   -  20 22 mph 1001.3mb - 35f
4:40am  -   -  20 25 mph 1001.7mb - 35f
4:30am  -   -  20 22 mph 1002.3mb - 34f
4:20am  -   -  20 25 mph 1002.6mb - 34f
4:10am  -   -  22 25 mph 1002.7mb - 35f
4:00am 2ft 3s 22 27 mph 1003.1mb 37f 35f
3:50am  -   -  22 27 mph 1003.3mb - 35f
3:40am  -   -  22 27 mph 1003.8mb - 35f
3:30am  -   -  22 25 mph 1004.1mb - 34f
3:20am  -   -  20 25 mph 1004.1mb - 34f
3:10am  -   -  20 25 mph 1004.1mb - 34f
3:00am 1.3ft 2s 20 22 mph 1004.3mb 37f 34f
2:50am  -   -  20 22 mph 1004.9mb - 34f
2:40am  -   -  18 20 mph 1005.1mb - 34f
2:30am  -   -  18 20 mph 1005.4mb - 35f
2:20am  -   -  16 18 mph 1005.8mb - 35f
2:10am  -   -  13 16 mph 1006.2mb - 35f
2:00am 1ft 2s 11 13 mph 1006.5mb 37f 35f
1:50am  -   -  11 13 mph 1006.7mb - 35f
1:40am  -   -  11 13 mph 1006.9mb - 35f
1:30am  -   -  9 11 mph 1007.6mb - 35f
1:20am  -   -  9 11 mph 1008mb - 35f
1:10am  -   -  7 9 mph 1008.4mb - 34f
1:00am 1.3ft 2s 7 11 mph 1008.5mb 37f 34f
12:50am  -   -  11 13 mph 1008mb - 34f
12:40am  -   -  16 18 mph 1007.7mb - 34f
12:30am  -   -  16 20 mph 1008mb - 34f
12:20am  -   -  16 18 mph 1008.5mb - 34f
12:10am  -   -  18 20 mph 1008.9mb - 34f
12:00am 1ft 2s 16 20 mph 1009.5mb 37f 34f
Fri 01/23 11:50pm  -   -  16 18 mph 1010.1mb - 34f
11:40pm  -   -  16 18 mph 1010.5mb - 34f
11:30pm  -   -  13 16 mph 1011mb - 34f
11:20pm  -   -  13 16 mph 1011.3mb - 34f
11:10pm  -   -  13 16 mph 1011.5mb - 35f
11:00pm 0.3ft  -  13
mph
1011.9mb 37f 35f
10:50pm  -   -  11 13 mph 1012.5mb - 35f
10:40pm  -   -  9 11 mph 1013.2mb - 35f
10:30pm  -   -  7 9 mph 1013.8mb - 35f
10:20pm  -   -  7 9 mph 1014.1mb - 35f
10:10pm  -   -  7
mph
1014.3mb - 35f
10:00pm 0.7ft  -  7 9 mph 1014.4mb 37f 35f
9:50pm  -   -  7 9 mph 1014.5mb - 35f
9:40pm  -   -  4 7 mph 1015mb - 35f
9:30pm  -   -  4 7 mph 1015.3mb - 35f
9:20pm  -   -  4 7 mph 1015.7mb - 35f
9:10pm  -   -  7
mph
1016.1mb - 35f
9:00pm 1ft 2s 7 9 mph 1016.2mb 37f 35f
8:50pm  -   -  9 11 mph 1016.4mb - 35f
8:40pm  -   -  9 11 mph 1016.9mb - 36f
8:20pm  -   -  11 13 mph 1017.6mb - 36f
8:10pm  -   -  11 13 mph 1017.8mb - 36f
8:00pm 1ft 2s 11 13 mph 1018mb 37f 36f
7:50pm  -   -  11 13 mph 1018.1mb - 36f
7:40pm  -   -  11 13 mph 1018.3mb - 36f
7:30pm  -   -  11 13 mph 1018.5mb - 36f
7:20pm  -   -  11 13 mph 1018.8mb - 36f
7:10pm  -   -  13 16 mph 1019.2mb - 36f
7:00pm 1.3ft 2s 16 18 mph 1019.5mb 37f 35f
6:50pm  -   -  16 18 mph 1019.6mb - 36f
6:40pm  -   -  16 18 mph 1019.7mb - 36f
6:30pm  -   -  16 18 mph 1019.6mb - 36f
6:20pm  -   -  16 18 mph 1019.8mb - 36f
6:10pm  -   -  13 16 mph 1019.9mb - 36f
6:00pm 1ft 2s 13 16 mph 1020mb 37f 36f
5:50pm  -   -  13 16 mph 1020.1mb - 36f
5:40pm  -   -  13
mph
1020.1mb - 36f
5:30pm  -   -  13 16 mph 1020.2mb - 36f
5:20pm  -   -  13
mph
1020.2mb - 36f
5:10pm  -   -  13
mph
1020.4mb - 36f
5:00pm 1ft 2s 11 13 mph 1020.5mb 37f 36f
4:50pm  -   -  11 13 mph 1020.7mb - 36f
4:40pm  -   -  11
mph
1020.5mb - 36f
4:30pm  -   -  11 13 mph 1020.6mb - 36f
4:20pm  -   -  11 13 mph 1020.9mb - 36f
4:10pm  -   -  11 13 mph 1020.9mb - 36f
4:00pm 1ft 2s 11 13 mph 1021.1mb 37f 37f
3:50pm  -   -  13 16 mph 1020.9mb - 36f
3:40pm  -   -  13 16 mph 1020.8mb - 36f
3:30pm  -   -  13 16 mph 1021.1mb - 36f
3:20pm  -   -  13 16 mph 1021.3mb - 36f
3:10pm  -   -  13 16 mph 1021.5mb - 36f
3:00pm 1.3ft 2s 13 16 mph 1021.8mb 37f 36f
2:50pm  -   -  13 16 mph 1022.1mb - 36f
2:40pm  -   -  13 16 mph 1022.4mb - 36f
2:30pm  -   -  13 16 mph 1022.8mb - 36f
2:20pm  -   -  13 16 mph 1023mb - 36f
2:10pm  -   -  13 16 mph 1023mb - 36f
2:00pm 1ft 2s 13
mph
1023.1mb 37f 36f
1:50pm  -   -  13 16 mph 1023.4mb - 36f
1:40pm  -   -  11 16 mph 1023.5mb - 36f
1:30pm  -   -  11 13 mph 1023.5mb - 36f
1:20pm  -   -  11
mph
1023.6mb - 36f
1:10pm  -   -  9 11 mph 1023.8mb - 36f
1:00pm 0.3ft  -  9 11 mph 1024mb 37f 36f
12:50pm  -   -  9 11 mph 1024.2mb - 36f
12:40pm  -   -  9
mph
1024.5mb - 37f
12:30pm  -   -  7 9 mph 1024.7mb - 37f
12:20pm  -   -  4
mph
1025mb - 37f
12:10pm  -   -  4
mph
1025.3mb - 37f
12:00pm  -   -  2 4 mph 1025.5mb 37f 37f
11:50am  -   -  4
mph
1025.6mb - 37f
11:40am  -   -  2 4 mph 1025.8mb - 37f
11:30am  -   -  2
mph
1026mb - 37f
11:20am  -   -  2
mph
1026.3mb - 37f
11:10am  -   -  2
mph
1026.5mb - 37f
11:00am  -   -  2
mph
1026.6mb 37f 37f
10:50am  -   -  2
mph
1026.7mb - 36f
10:40am  -   -  2 4 mph 1026.8mb - 36f
10:30am  -   -  2
mph
1026.8mb - 36f
10:20am  -   -  2 4 mph 1027mb - 36f
10:10am  -   -  2
mph
1026.9mb - 36f
10:00am  -   -  2 4 mph 1027.1mb 36f 36f
9:50am  -   -  4
mph
1027.1mb - 36f
9:40am  -   -  4
mph
1027mb - 36f
9:30am  -   -  4
mph
1027mb - 37f
9:20am  -   -  2
mph
1027mb - 37f
9:10am  -   -   -  2 mph 1026.8mb - 38f
9:00am 0.3ft  -   -  2 mph 1026.8mb 36f 38f
8:50am  -   -   -  2 mph 1026.9mb - 39f
8:40am  -   -   -  2 mph 1026.7mb - 36f
8:30am  -   -   -  2 mph 1026.8mb - 35f
8:20am  -   -   -  mph 1027mb - 35f
8:10am  -   -   -  mph 1027mb - 35f
8:00am 0.3ft  -   -  2 mph 1027.2mb 36f 35f
7:50am  -   -  2
mph
1027.2mb - 35f
7:40am  -   -  2
mph
1027.2mb - 35f
7:30am  -   -  2
mph
1027.3mb - 34f
7:20am  -   -  2
mph
1027.4mb - 34f
7:10am  -   -  2
mph
1027.5mb - 34f
7:00am 0.3ft  -  2 4 mph 1027.6mb 36f 35f
6:50am  -   -  4
mph
1027.6mb - 34f
6:40am  -   -  4
mph
1027.6mb - 34f
6:30am  -   -  4
mph
1027.7mb - 34f
6:20am  -   -  4
mph
1027.7mb - 34f
6:10am  -   -  4
mph
1027.7mb - 34f
6:00am 0.3ft  -  4 7 mph 1027.6mb 36f 35f
5:50am  -   -  7
mph
1027.6mb - 35f
5:40am  -   -  7
mph
1027.6mb - 35f
5:30am  -   -  7
mph
1027.6mb - 35f
5:20am  -   -  7
mph
1027.6mb - 35f
5:10am  -   -  7
mph
1027.6mb - 35f
5:00am 0.3ft  -  7
mph
1027.6mb 36f 35f
4:50am  -   -  7
mph
1027.7mb - 35f
4:40am  -   -  7
mph
1027.7mb - 35f
4:30am  -   -  4 7 mph 1027.7mb - 35f
4:20am  -   -  7
mph
1027.7mb - 35f
4:10am  -   -  4 7 mph 1027.7mb - 35f
4:00am 0.3ft  -  4 7 mph 1027.8mb 37f 35f
3:50am  -   -  4 7 mph 1028mb - 36f
3:40am  -   -  7
mph
1028.1mb - 36f
3:30am  -   -  7
mph
1028.1mb - 36f
3:20am  -   -  7 9 mph 1028mb - 36f
3:10am  -   -  7 9 mph 1028mb - 36f
3:00am 0.7ft  -  7 9 mph 1027.9mb 37f 36f
2:50am  -   -  9 11 mph 1028mb - 36f
2:40am  -   -  9 11 mph 1028mb - 36f
2:30am  -   -  11
mph
1027.8mb - 36f
2:20am  -   -  9 11 mph 1027.9mb - 36f
2:10am  -   -  9 11 mph 1027.9mb - 36f
2:00am 0.7ft  -  11 13 mph 1027.9mb 37f 37f
1:50am  -   -  11
mph
1027.8mb - 37f
1:40am  -   -  9 11 mph 1027.8mb - 37f
1:30am  -   -  9 11 mph 1027.7mb - 37f
1:20am  -   -  9 11 mph 1027.9mb - 37f
1:10am  -   -  7 9 mph 1028.1mb - 37f
1:00am 0.3ft  -  9
mph
1028mb 36f 37f
12:50am  -   -  9
mph
1028mb - 37f
12:40am  -   -  9
mph
1027.9mb - 37f
12:30am  -   -  7 9 mph 1027.7mb - 37f
12:20am  -   -  7 9 mph 1027.5mb - 37f
12:10am  -   -  7 9 mph 1027.5mb - 37f
12:00am 0.3ft  -  7 9 mph 1027.6mb 37f 37f
Thu 01/22 11:50pm  -   -  9 11 mph 1027.5mb - 37f
11:40pm  -   -  9
mph
1027.5mb - 37f
11:30pm  -   -  9
mph
1027.5mb - 37f
11:20pm  -   -  7 9 mph 1027.7mb - 37f
11:10pm  -   -  4
mph
1027.7mb - 36f
11:00pm 0.3ft  -  4
mph
1027.6mb 37f 36f
10:50pm  -   -  2 4 mph 1027.6mb - 36f
10:40pm  -   -  2 4 mph 1027.6mb - 36f
10:30pm  -   -  4
mph
1027.6mb - 37f
10:20pm  -   -  4
mph
1027.7mb - 37f
10:10pm  -   -  4
mph
1027.8mb - 37f
10:00pm 0.3ft  -  4 7 mph 1027.8mb 37f 37f
9:50pm  -   -  4 7 mph 1027.8mb - 37f
9:40pm  -   -  4 7 mph 1027.8mb - 37f
9:30pm  -   -  4
mph
1027.7mb - 37f
9:20pm  -   -  4
mph
1027.7mb - 37f
9:10pm  -   -  4
mph
1027.6mb - 37f
9:00pm 0.7ft  -  4
mph
1027.6mb 37f 37f
8:50pm  -   -  4
mph
1027.6mb - 38f
8:40pm  -   -  4 7 mph 1027.6mb - 38f
8:30pm  -   -  7 9 mph 1027.6mb - 39f
8:20pm  -   -  7 9 mph 1027.5mb - 39f
8:10pm  -   -  7
mph
1027.5mb - 39f
8:00pm 0.7ft  -  7
mph
1027.5mb 37f 38f
7:50pm  -   -  7 9 mph 1027.4mb - 39f
7:40pm  -   -  7 9 mph 1027.5mb - 39f
7:30pm  -   -  7 9 mph 1027.5mb - 38f
7:20pm  -   -  4
mph
1027.4mb - 39f
7:10pm  -   -  2 4 mph 1027.3mb - 39f
7:00pm 0.7ft  -  2
mph
1027.3mb 37f 39f
6:50pm  -   -  2
mph
1027.3mb - 39f
6:40pm  -   -  2 4 mph 1027.2mb - 39f
6:30pm  -   -  4 7 mph 1027.1mb - 39f
6:20pm  -   -  4 7 mph 1027.1mb - 39f
6:10pm  -   -  7 9 mph 1026.9mb - 39f
6:00pm 1ft 2s 7 9 mph 1026.7mb 37f 39f
5:50pm  -   -  7
mph
1026.6mb - 40f
5:40pm  -   -  9 11 mph 1026.4mb - 40f
5:30pm  -   -  9 11 mph 1026.2mb - 40f
5:20pm  -   -  9
mph
1026.2mb - 40f
5:10pm  -   -  11 13 mph 1026.1mb - 41f
5:00pm 1ft 2s 9 13 mph 1025.9mb 37f 41f
4:50pm  -   -  9 11 mph 1025.7mb - 41f
4:40pm  -   -  11
mph
1025.5mb - 41f
4:30pm  -   -  11 16 mph 1025.4mb - 41f
4:20pm  -   -  11 16 mph 1025.4mb - 42f
4:10pm  -   -  11 16 mph 1025.2mb - 42f
4:00pm 1.3ft 2s 13 18 mph 1025.2mb 37f 42f
3:50pm  -   -  11 13 mph 1025.3mb - 42f
3:40pm  -   -  13 16 mph 1025mb - 43f
3:30pm  -   -  16 18 mph 1024.7mb - 43f
3:20pm  -   -  16 22 mph 1024.5mb - 43f
3:10pm  -   -  16 22 mph 1024.3mb - 43f
3:00pm 1.3ft 2s 16 20 mph 1024.2mb 37f 43f
2:50pm  -   -  13 20 mph 1024.3mb - 42f
2:40pm  -   -  13 16 mph 1024.3mb - 42f
2:30pm  -   -  13 18 mph 1024mb - 42f
2:20pm  -   -  11 13 mph 1023.9mb - 41f
2:10pm  -   -  4 11 mph 1023.9mb - 40f
2:00pm 0.3ft  -   -  2 mph 1023.9mb 37f 40f
1:50pm  -   -  2 4 mph 1023.8mb - 39f
1:40pm  -   -  4
mph
1023.9mb - 38f
1:30pm  -   -  4
mph
1023.9mb - 39f
1:20pm  -   -  4 7 mph 1023.9mb - 38f
1:10pm  -   -  4 7 mph 1023.9mb - 38f
1:00pm 0.3ft  -  7
mph
1023.9mb 37f 38f
12:50pm  -   -  4 7 mph 1024mb - 38f
12:40pm  -   -  4 7 mph 1024.1mb - 38f
12:30pm  -   -  4 7 mph 1024.2mb - 38f
12:20pm  -   -  7 9 mph 1024.4mb - 38f
12:10pm  -   -  4
mph
1024.5mb - 39f
12:00pm 0.7ft  -  2 4 mph 1024.6mb 37f 39f
11:30am  -   -  7
mph
1025mb - 38f
11:20am  -   -  7 9 mph 1025.1mb - 37f
11:10am  -   -  9 11 mph 1025.1mb - 37f
11:00am 0.7ft  -  9 11 mph 1025.2mb 37f 36f
10:50am  -   -  11 13 mph 1025.1mb - 36f
10:40am  -   -  13 16 mph 1025mb - 36f
10:30am  -   -  13 16 mph 1025mb - 35f
10:20am  -   -  13 16 mph 1024.9mb - 35f
10:10am  -   -  11 13 mph 1024.8mb - 35f
10:00am 0.7ft  -  11 13 mph 1024.6mb 37f 34f
9:50am  -   -  11 13 mph 1024.5mb - 34f
9:40am  -   -  9 11 mph 1024.3mb - 33f
9:30am  -   -  9 11 mph 1024.1mb - 33f
9:20am  -   -  11 13 mph 1024mb - 33f
9:10am  -   -  11 13 mph 1024mb - 33f
9:00am 0.3ft  -  9 11 mph 1023.9mb 36f 33f
8:50am  -   -  9 11 mph 1023.9mb - 33f
8:40am  -   -  9 11 mph 1023.9mb - 33f
8:30am  -   -  9 11 mph 1023.8mb - 33f
8:20am  -   -  9 11 mph 1023.7mb - 33f
8:10am  -   -  7 11 mph 1023.6mb - 33f
8:00am 0.3ft  -  9 11 mph 1023.4mb 36f 32f
7:50am  -   -  9 11 mph 1023.4mb - 32f
7:40am  -   -  9 11 mph 1023.2mb - 32f
7:30am  -   -  9 11 mph 1023.1mb - 33f
7:20am  -   -  7 11 mph 1023mb - 33f
7:10am  -   -  7 9 mph 1022.9mb - 33f
7:00am  -   -  7 9 mph 1022.8mb 36f 33f
6:50am  -   -  4 9 mph 1022.7mb - 32f
6:40am  -   -  4 9 mph 1022.7mb - 32f
6:30am  -   -  4 7 mph 1022.6mb - 31f
6:20am  -   -  4 7 mph 1022.5mb - 31f
6:10am  -   -  4 7 mph 1022.4mb - 31f
6:00am  -   -  2 4 mph 1022.3mb 36f 31f
5:50am  -   -  4 7 mph 1022.3mb - 31f
5:40am  -   -  4 9 mph 1022.2mb - 31f
5:30am  -   -  2 4 mph 1021.8mb - 31f
5:20am  -   -  4 9 mph 1022mb - 30f
5:10am  -   -  4 9 mph 1022.2mb - 31f
5:00am 0.3ft  -  4 9 mph 1022.1mb 36f 31f
4:50am  -   -  4 7 mph 1022.1mb - 31f
4:40am  -   -  2 4 mph 1022mb - 31f
4:30am  -   -  4
mph
1022mb - 31f
4:20am  -   -  2 4 mph 1021.8mb - 31f
4:10am  -   -  4
mph
1021.8mb - 31f
4:00am  -   -  2 4 mph 1021.9mb 36f 31f
3:50am  -   -  4 7 mph 1021.9mb - 31f
3:40am  -   -  2 7 mph 1022mb - 31f
3:30am  -   -  2 4 mph 1022mb - 31f
3:20am  -   -  4 9 mph 1022.1mb - 31f
3:10am  -   -  4 9 mph 1022mb - 31f
3:00am  -   -  4 7 mph 1021.8mb 37f 31f
2:50am  -   -  2 4 mph 1021.4mb - 31f
2:40am  -   -  4 7 mph 1021.5mb - 31f
2:30am  -   -  4 7 mph 1021.4mb - 31f
2:20am  -   -  2
mph
1021.3mb - 31f
2:10am  -   -  2 4 mph 1021.4mb - 31f
2:00am  -   -  2 4 mph 1021.4mb 36f 31f
1:50am  -   -  2 7 mph 1021.3mb - 31f
1:40am  -   -  4 7 mph 1021.2mb - 31f
1:30am  -   -  2
mph
1021.1mb - 31f
1:20am  -   -  2 4 mph 1021.2mb - 31f
1:10am  -   -  4 7 mph 1021.2mb - 31f
1:00am 0.3ft  -  2 4 mph 1021.2mb 36f 31f
12:50am  -   -  4 7 mph 1021mb - 31f
12:40am  -   -  2 4 mph 1021mb - 31f
12:30am  -   -  7 9 mph 1021.1mb - 31f
12:20am  -   -  4 9 mph 1021.2mb - 31f
12:10am  -   -  4 9 mph 1021.2mb - 32f
12:00am 0.3ft  -  4 7 mph 1021.1mb 36f 32f
Wed 01/21 11:50pm  -   -  4 9 mph 1021.1mb - 32f
11:40pm  -   -  4 7 mph 1021.1mb - 31f
11:30pm  -   -  4 7 mph 1021.1mb - 32f
11:20pm  -   -  4 7 mph 1021mb - 32f
11:10pm  -   -  2 4 mph 1020.8mb - 32f
11:00pm 0.3ft  -  2 4 mph 1020.7mb 37f 32f
10:50pm  -   -  2 4 mph 1020.7mb - 32f
10:40pm  -   -  4
mph
1020.9mb - 32f
10:30pm  -   -   -  2 mph 1020.9mb - 32f
10:20pm  -   -  2 4 mph 1020.8mb - 32f
10:10pm  -   -  2 7 mph 1020.8mb - 32f
10:00pm 0.3ft  -  4 7 mph 1020.7mb 37f 32f
9:50pm  -   -  4 7 mph 1020.6mb - 32f
9:40pm  -   -  4 7 mph 1020.8mb - 32f
9:30pm  -   -  4 9 mph 1020.7mb - 32f
9:20pm  -   -  4 7 mph 1020.6mb - 32f
9:10pm  -   -  7
mph
1020.5mb - 32f
9:00pm 0.7ft  -  7 9 mph 1020.6mb 37f 32f
8:50pm  -   -  9 11 mph 1020.6mb - 32f
8:40pm  -   -  9 11 mph 1020.6mb - 32f
8:30pm  -   -  9 11 mph 1020.5mb - 32f
8:20pm  -   -  9 11 mph 1020.4mb - 32f
8:10pm  -   -  7 9 mph 1020.2mb - 32f
8:00pm 0.3ft  -  7
mph
1020.2mb 37f 32f
7:50pm  -   -  4 7 mph 1020mb - 32f
7:40pm  -   -  7
mph
1019.9mb - 32f
7:30pm  -   -  7 9 mph 1020mb - 32f
7:20pm  -   -  7 9 mph 1020mb - 32f
7:10pm  -   -  7 9 mph 1019.9mb - 32f
7:00pm 0.7ft  -  7 9 mph 1019.9mb 37f 32f
6:50pm  -   -  7 9 mph 1019.8mb - 32f
6:40pm  -   -  7 9 mph 1019.6mb - 32f
6:30pm  -   -  4 7 mph 1019.4mb - 31f
6:20pm  -   -  4 7 mph 1019.3mb - 31f
6:10pm  -   -  4 7 mph 1019.3mb - 31f
6:00pm 0.7ft  -  4 7 mph 1019.2mb 37f 31f
5:50pm  -   -  4 7 mph 1019.2mb - 31f
5:40pm  -   -  4 7 mph 1019mb - 31f
5:30pm  -   -  4 7 mph 1018.8mb - 31f
5:20pm  -   -  4 7 mph 1018.6mb - 31f
5:10pm  -   -  4 7 mph 1018.6mb - 31f
5:00pm 1ft 2s 4 9 mph 1018.5mb 37f 31f